createdAt,value
2022-09-26T00:01:22.255Z,77.17
2022-09-26T00:03:51.431Z,77.13
2022-09-26T00:06:19.489Z,77.31
2022-09-26T00:08:47.477Z,77.46
2022-09-26T00:11:23.847Z,77.53
2022-09-26T00:13:56.131Z,77.46
2022-09-26T00:16:23.798Z,77.50
2022-09-26T00:18:52.820Z,77.58
2022-09-26T00:21:20.455Z,77.85
2022-09-26T00:23:47.394Z,77.62
2022-09-26T00:26:15.447Z,77.60
2022-09-26T00:28:42.762Z,77.75
2022-09-26T00:31:12.116Z,77.77
2022-09-26T00:33:39.186Z,78.01
2022-09-26T00:36:07.044Z,78.21
2022-09-26T00:38:34.437Z,78.21
2022-09-26T00:41:02.056Z,78.23
2022-09-26T00:43:42.306Z,78.17
2022-09-26T00:46:36.958Z,78.25
2022-09-26T00:49:13.457Z,78.16
2022-09-26T00:51:43.408Z,78.19
2022-09-26T00:54:12.738Z,78.19
2022-09-26T00:56:42.513Z,78.35
2022-09-26T00:59:15.814Z,78.31
2022-09-26T01:01:42.826Z,78.37
2022-09-26T01:04:12.423Z,78.24
2022-09-26T01:06:39.660Z,78.35
2022-09-26T01:09:09.056Z,78.47
2022-09-26T01:11:37.459Z,78.55
2022-09-26T01:14:05.818Z,78.77
2022-09-26T01:16:34.248Z,78.51
2022-09-26T01:19:03.385Z,78.76
2022-09-26T01:21:44.930Z,78.75
2022-09-26T01:25:08.700Z,78.58
2022-09-26T01:28:04.203Z,78.37
2022-09-26T01:30:58.132Z,78.50
2022-09-26T01:33:57.546Z,78.44
2022-09-26T01:36:42.522Z,78.63
2022-09-26T01:39:53.623Z,78.62
2022-09-26T01:42:28.944Z,78.79
2022-09-26T01:45:11.407Z,78.55
2022-09-26T01:47:46.619Z,78.73
2022-09-26T01:50:18.259Z,78.90
2022-09-26T01:52:55.375Z,78.88
2022-09-26T01:55:28.226Z,78.82
2022-09-26T01:58:27.897Z,78.93
2022-09-26T02:00:59.290Z,78.75
2022-09-26T02:03:30.497Z,78.95
2022-09-26T02:06:09.248Z,78.86
2022-09-26T02:08:42.054Z,79.28
2022-09-26T02:11:19.131Z,79.22
2022-09-26T02:14:04.384Z,79.03
2022-09-26T02:16:50.998Z,79.10
2022-09-26T02:19:26.330Z,78.91
2022-09-26T02:21:53.937Z,79.00
2022-09-26T02:24:22.288Z,79.04
2022-09-26T02:26:50.811Z,79.05
2022-09-26T02:29:17.449Z,79.21
2022-09-26T02:31:54.023Z,79.40
2022-09-26T02:34:20.736Z,79.30
2022-09-26T02:36:47.536Z,79.31
2022-09-26T02:39:14.203Z,79.49
2022-09-26T02:41:57.966Z,79.43
2022-09-26T02:44:37.058Z,79.49
2022-09-26T02:47:09.775Z,79.35
2022-09-26T02:50:04.718Z,79.48
2022-09-26T02:52:39.936Z,79.44
2022-09-26T02:55:12.193Z,79.44
2022-09-26T02:58:09.153Z,79.67
2022-09-26T03:00:38.470Z,79.66
2022-09-26T03:03:21.593Z,79.65
2022-09-26T03:05:51.674Z,79.80
2022-09-26T03:08:23.509Z,79.83
2022-09-26T03:10:51.474Z,79.53
2022-09-26T03:13:20.317Z,79.65
2022-09-26T03:15:52.146Z,79.84
2022-09-26T03:18:26.295Z,79.80
2022-09-26T03:20:54.262Z,80.19
2022-09-26T03:23:23.501Z,79.99
2022-09-26T03:26:11.368Z,79.93
2022-09-26T03:28:38.292Z,80.07
2022-09-26T03:31:05.827Z,79.98
2022-09-26T03:33:32.448Z,80.13
2022-09-26T03:36:00.179Z,80.00
2022-09-26T03:38:27.444Z,80.07
2022-09-26T03:40:54.419Z,80.09
2022-09-26T03:43:24.380Z,80.00
2022-09-26T03:45:51.672Z,80.14
2022-09-26T03:48:18.354Z,80.39
2022-09-26T03:50:44.942Z,80.21
2022-09-26T03:53:11.669Z,80.19
2022-09-26T03:55:38.487Z,80.33
2022-09-26T03:58:05.272Z,80.16
2022-09-26T04:00:31.946Z,80.50
2022-09-26T04:03:03.115Z,80.36
2022-09-26T04:05:29.881Z,80.30
2022-09-26T04:07:56.466Z,80.53
2022-09-26T04:10:26.187Z,80.38
2022-09-26T04:12:52.824Z,80.50
2022-09-26T04:15:19.441Z,80.55
2022-09-26T04:17:46.430Z,80.23
2022-09-26T04:20:13.089Z,80.63
2022-09-26T04:22:40.115Z,80.64
2022-09-26T04:25:07.194Z,80.58
2022-09-26T04:27:33.812Z,80.67
2022-09-26T04:30:00.413Z,80.61
2022-09-26T04:32:27.013Z,80.54
2022-09-26T04:34:53.587Z,80.40
2022-09-26T04:37:21.149Z,80.62
2022-09-26T04:39:48.445Z,80.44
2022-09-26T04:42:15.102Z,80.88
2022-09-26T04:44:41.773Z,80.73
2022-09-26T04:47:08.395Z,80.73
2022-09-26T04:49:34.985Z,80.68
2022-09-26T04:52:01.824Z,80.80
2022-09-26T04:54:28.412Z,80.88
2022-09-26T04:56:55.030Z,80.90
2022-09-26T04:59:21.659Z,81.07
2022-09-26T05:01:48.318Z,80.87
2022-09-26T05:04:14.971Z,80.80
2022-09-26T05:06:41.559Z,80.79
2022-09-26T05:09:08.438Z,80.91
2022-09-26T05:11:35.150Z,80.68
2022-09-26T05:14:03.566Z,80.78
2022-09-26T05:16:30.600Z,80.64
2022-09-26T05:18:57.345Z,80.68
2022-09-26T05:21:24.016Z,80.78
2022-09-26T05:24:09.259Z,80.98
2022-09-26T05:26:42.098Z,80.75
2022-09-26T05:29:09.545Z,80.97
2022-09-26T05:31:40.067Z,80.60
2022-09-26T05:34:12.202Z,80.74
2022-09-26T05:36:43.150Z,81.04
2022-09-26T05:39:30.024Z,81.12
2022-09-26T05:41:58.327Z,80.69
2022-09-26T05:44:27.548Z,80.90
2022-09-26T05:46:57.488Z,80.90
2022-09-26T05:49:25.185Z,80.92
2022-09-26T05:51:53.801Z,80.90
2022-09-26T05:54:24.190Z,80.89
2022-09-26T05:56:50.898Z,81.14
2022-09-26T05:59:17.479Z,80.97
2022-09-26T06:01:44.298Z,80.83
2022-09-26T06:04:11.012Z,81.11
2022-09-26T06:06:37.735Z,81.01
2022-09-26T06:09:07.238Z,81.17
2022-09-26T06:11:34.108Z,81.21
2022-09-26T06:14:03.375Z,81.06
2022-09-26T06:16:30.194Z,81.21
2022-09-26T06:18:57.070Z,81.14
2022-09-26T06:21:26.175Z,81.30
2022-09-26T06:23:52.868Z,81.62
2022-09-26T06:26:24.803Z,81.25
2022-09-26T06:29:00.503Z,81.82
2022-09-26T06:31:28.295Z,81.49
2022-09-26T06:33:55.366Z,81.92
2022-09-26T06:36:23.863Z,82.06
2022-09-26T06:38:51.477Z,82.02
2022-09-26T06:41:18.621Z,82.18
2022-09-26T06:43:46.041Z,82.27
2022-09-26T06:46:15.007Z,82.15
2022-09-26T06:48:42.172Z,82.19
2022-09-26T06:51:09.459Z,82.42
2022-09-26T06:53:36.120Z,82.20
2022-09-26T06:56:10.838Z,82.36
2022-09-26T06:58:38.187Z,82.50
2022-09-26T07:01:09.566Z,82.47
2022-09-26T07:03:39.441Z,82.94
2022-09-26T07:06:09.168Z,82.72
2022-09-26T07:09:00.980Z,82.81
2022-09-26T07:11:38.078Z,82.76
2022-09-26T07:14:17.810Z,82.89
2022-09-26T07:16:52.203Z,82.92
2022-09-26T07:19:21.547Z,82.90
2022-09-26T07:21:49.472Z,82.86
2022-09-26T07:24:16.171Z,83.00
2022-09-26T07:26:42.961Z,83.26
2022-09-26T07:29:12.204Z,83.18
2022-09-26T07:31:39.105Z,83.21
2022-09-26T07:34:08.474Z,83.19
2022-09-26T07:36:35.296Z,83.49
2022-09-26T07:39:04.098Z,83.49
2022-09-26T07:41:31.199Z,83.32
2022-09-26T07:47:06.694Z,83.51
2022-09-26T07:49:51.643Z,83.56
2022-09-26T07:52:22.629Z,83.43
2022-09-26T07:54:51.902Z,83.45
2022-09-26T07:57:19.451Z,83.38
2022-09-26T07:59:50.548Z,83.56
2022-09-26T08:02:25.774Z,83.55
2022-09-26T08:05:00.335Z,83.44
2022-09-26T08:07:27.760Z,83.67
2022-09-26T08:09:54.329Z,83.41
2022-09-26T08:12:24.555Z,83.40
2022-09-26T08:14:52.968Z,83.71
2022-09-26T08:17:20.679Z,83.68
2022-09-26T08:19:48.793Z,83.60
2022-09-26T08:22:15.399Z,83.59
2022-09-26T08:24:44.314Z,83.57
2022-09-26T08:27:10.903Z,83.73
2022-09-26T08:29:40.079Z,83.51
2022-09-26T08:32:06.708Z,83.68
2022-09-26T08:34:35.296Z,83.40
2022-09-26T08:37:01.968Z,83.40
2022-09-26T08:39:33.115Z,83.52
2022-09-26T08:42:09.125Z,83.48
2022-09-26T08:44:58.303Z,83.41
2022-09-26T08:47:48.437Z,83.22
2022-09-26T08:51:12.189Z,83.48
2022-09-26T08:53:52.616Z,83.46
2022-09-26T08:56:27.399Z,83.40
2022-09-26T08:58:56.164Z,83.63
2022-09-26T09:01:29.260Z,83.42
2022-09-26T09:04:05.385Z,83.08
2022-09-26T09:06:32.912Z,83.33
2022-09-26T09:08:59.694Z,83.06
2022-09-26T09:11:41.814Z,83.00
2022-09-26T09:14:08.375Z,83.18
2022-09-26T09:16:58.718Z,83.14
2022-09-26T09:20:04.374Z,83.21
2022-09-26T09:23:13.011Z,83.07
2022-09-26T09:25:51.862Z,83.01
2022-09-26T09:28:27.746Z,82.85
2022-09-26T09:30:57.705Z,82.64
2022-09-26T09:33:29.261Z,82.63
2022-09-26T09:36:03.784Z,82.96
2022-09-26T09:38:33.590Z,82.96
2022-09-26T09:41:09.306Z,82.96
2022-09-26T09:43:47.562Z,82.92
2022-09-26T09:46:23.756Z,83.09
2022-09-26T09:48:58.081Z,82.72
2022-09-26T09:51:39.476Z,82.98
2022-09-26T09:54:09.351Z,82.80
2022-09-26T09:56:52.068Z,82.77
2022-09-26T09:59:18.663Z,82.79
2022-09-26T10:01:50.046Z,82.89
2022-09-26T10:04:36.788Z,82.86
2022-09-26T10:07:05.362Z,82.75
2022-09-26T10:09:40.819Z,82.81
2022-09-26T10:12:14.371Z,82.77
2022-09-26T10:15:02.358Z,82.43
2022-09-26T10:17:29.612Z,82.55
2022-09-26T10:19:56.321Z,82.42
2022-09-26T10:22:26.505Z,82.69
2022-09-26T10:25:00.774Z,82.19
2022-09-26T10:27:38.319Z,82.32
2022-09-26T10:30:25.841Z,82.46
2022-09-26T10:32:59.125Z,82.66
2022-09-26T10:35:40.642Z,82.51
2022-09-26T10:38:27.436Z,82.72
2022-09-26T10:41:03.633Z,82.45
2022-09-26T10:43:38.130Z,82.70
2022-09-26T10:46:17.109Z,82.47
2022-09-26T10:48:47.899Z,82.81
2022-09-26T10:51:21.140Z,82.59
2022-09-26T10:53:53.762Z,82.53
2022-09-26T10:56:28.292Z,82.97
2022-09-26T10:58:59.705Z,83.05
2022-09-26T11:01:31.394Z,83.11
2022-09-26T11:04:13.214Z,82.93
2022-09-26T11:06:48.128Z,82.62
2022-09-26T11:09:20.529Z,82.83
2022-09-26T11:11:50.580Z,82.63
2022-09-26T11:14:29.218Z,83.00
2022-09-26T11:16:56.666Z,82.72
2022-09-26T11:19:53.841Z,82.71
2022-09-26T11:22:38.379Z,82.34
2022-09-26T11:25:20.317Z,82.23
2022-09-26T11:27:53.643Z,82.39
2022-09-26T11:30:22.014Z,82.02
2022-09-26T11:32:51.638Z,82.24
2022-09-26T11:35:33.477Z,82.21
2022-09-26T11:38:38.398Z,82.04
2022-09-26T11:41:38.905Z,82.19
2022-09-26T11:44:23.878Z,81.80
2022-09-26T11:47:30.312Z,81.88
2022-09-26T11:50:37.899Z,82.27
2022-09-26T11:53:42.703Z,81.96
2022-09-26T11:56:40.106Z,81.84
2022-09-26T11:59:49.687Z,82.08
2022-09-26T12:02:34.496Z,82.25
2022-09-26T12:05:13.985Z,82.22
2022-09-26T12:08:01.495Z,82.09
2022-09-26T12:10:46.110Z,82.11
2022-09-26T12:13:29.886Z,82.22
2022-09-26T12:16:14.541Z,82.38
2022-09-26T12:18:59.677Z,82.11
2022-09-26T12:22:06.424Z,81.81
2022-09-26T12:24:51.596Z,81.69
2022-09-26T12:27:39.404Z,81.92
2022-09-26T12:30:11.661Z,81.98
2022-09-26T12:32:52.348Z,81.67
2022-09-26T12:35:43.881Z,81.40
2022-09-26T12:38:16.962Z,81.33
2022-09-26T12:41:14.390Z,81.15
2022-09-26T12:44:22.750Z,81.43
2022-09-26T12:47:12.357Z,81.50
2022-09-26T12:49:47.910Z,81.59
2022-09-26T12:52:43.164Z,81.57
2022-09-26T12:55:28.175Z,81.45
2022-09-26T12:58:21.934Z,81.83
2022-09-26T13:01:23.866Z,81.61
2022-09-26T13:04:09.135Z,81.10
2022-09-26T13:07:07.649Z,81.31
2022-09-26T13:10:00.998Z,81.47
2022-09-26T13:12:46.580Z,81.15
2022-09-26T13:15:35.423Z,81.02
2022-09-26T13:18:15.127Z,81.06
2022-09-26T13:20:51.902Z,81.27
2022-09-26T13:23:34.998Z,81.63
2022-09-26T13:26:14.575Z,81.48
2022-09-26T13:29:06.290Z,81.39
2022-09-26T13:31:43.260Z,81.69
2022-09-26T13:34:32.132Z,81.40
2022-09-26T13:36:59.713Z,81.29
2022-09-26T13:39:38.622Z,81.37
2022-09-26T13:42:15.272Z,81.10
2022-09-26T13:45:12.231Z,81.06
2022-09-26T13:47:46.416Z,80.77
2022-09-26T13:50:27.443Z,81.15
2022-09-26T13:53:12.951Z,80.98
2022-09-26T13:55:40.056Z,80.79
2022-09-26T13:58:20.082Z,80.89
2022-09-26T14:00:53.374Z,81.07
2022-09-26T14:03:20.213Z,80.78
2022-09-26T14:05:52.178Z,80.94
2022-09-26T14:08:43.108Z,80.70
2022-09-26T14:11:19.000Z,80.66
2022-09-26T14:13:47.702Z,80.34
2022-09-26T14:16:35.834Z,80.61
2022-09-26T14:19:15.802Z,80.37
2022-09-26T14:21:49.408Z,80.39
2022-09-26T14:24:32.208Z,80.31
2022-09-26T14:27:05.209Z,80.69
2022-09-26T14:29:39.140Z,80.85
2022-09-26T14:32:09.923Z,80.74
2022-09-26T14:34:45.647Z,80.76
2022-09-26T14:37:21.615Z,80.75
2022-09-26T14:40:11.191Z,80.83
2022-09-26T14:42:43.762Z,80.65
2022-09-26T14:45:16.577Z,80.76
2022-09-26T14:47:50.521Z,81.03
2022-09-26T14:50:34.448Z,80.62
2022-09-26T14:53:34.096Z,80.44
2022-09-26T14:56:06.296Z,80.47
2022-09-26T14:58:50.118Z,80.34
2022-09-26T15:01:28.630Z,80.39
2022-09-26T15:04:02.149Z,80.21
2022-09-26T15:06:30.763Z,80.38
2022-09-26T15:09:10.153Z,80.47
2022-09-26T15:11:49.535Z,80.19
2022-09-26T15:14:39.938Z,80.47
2022-09-26T15:17:14.954Z,80.19
2022-09-26T15:19:55.531Z,80.16
2022-09-26T15:22:27.570Z,80.52
2022-09-26T15:24:55.867Z,80.71
2022-09-26T15:27:29.255Z,80.55
2022-09-26T15:30:14.317Z,80.32
2022-09-26T15:32:41.000Z,80.32
2022-09-26T15:35:12.747Z,80.51
2022-09-26T15:37:39.454Z,80.36
2022-09-26T15:40:26.093Z,80.08
2022-09-26T15:43:21.880Z,80.11
2022-09-26T15:45:49.213Z,80.26
2022-09-26T15:48:32.690Z,80.24
2022-09-26T15:51:16.602Z,80.39
2022-09-26T15:53:59.615Z,80.49
2022-09-26T15:56:35.417Z,80.80
2022-09-26T15:59:24.946Z,80.26
2022-09-26T16:01:52.678Z,80.57
2022-09-26T16:04:27.501Z,80.73
2022-09-26T16:07:04.704Z,80.77
2022-09-26T16:09:40.281Z,80.79
2022-09-26T16:12:16.053Z,81.00
2022-09-26T16:14:50.699Z,80.82
2022-09-26T16:17:35.886Z,80.89
2022-09-26T16:20:24.210Z,81.03
2022-09-26T16:22:53.088Z,80.96
2022-09-26T16:25:19.690Z,80.86
2022-09-26T16:27:51.096Z,81.35
2022-09-26T16:30:23.819Z,81.33
2022-09-26T16:32:54.634Z,81.17
2022-09-26T16:35:30.447Z,81.41
2022-09-26T16:37:57.591Z,81.18
2022-09-26T16:40:24.328Z,81.12
2022-09-26T16:42:51.160Z,81.38
2022-09-26T16:45:17.877Z,81.68
2022-09-26T16:47:45.586Z,81.60
2022-09-26T16:50:26.569Z,81.37
2022-09-26T16:52:54.587Z,81.46
2022-09-26T16:55:21.879Z,81.75
2022-09-26T16:57:56.878Z,81.81
2022-09-26T17:00:48.747Z,81.59
2022-09-26T17:03:30.633Z,81.33
2022-09-26T17:05:58.981Z,81.60
2022-09-26T17:08:27.544Z,81.19
2022-09-26T17:10:57.142Z,81.18
2022-09-26T17:13:26.462Z,81.24
2022-09-26T17:15:57.509Z,81.04
2022-09-26T17:18:29.545Z,80.93
2022-09-26T17:20:57.120Z,80.75
2022-09-26T17:23:41.121Z,81.06
2022-09-26T17:26:16.175Z,80.74
2022-09-26T17:28:42.941Z,80.68
2022-09-26T17:31:19.853Z,81.11
2022-09-26T17:33:49.808Z,80.99
2022-09-26T17:36:28.371Z,80.56
2022-09-26T17:38:57.753Z,80.90
2022-09-26T17:41:25.316Z,80.55
2022-09-26T17:43:58.668Z,80.59
2022-09-26T17:46:25.604Z,80.94
2022-09-26T17:48:52.346Z,80.53
2022-09-26T17:51:21.207Z,80.68
2022-09-26T17:53:51.060Z,80.76
2022-09-26T17:56:19.212Z,80.68
2022-09-26T17:58:47.433Z,80.35
2022-09-26T18:01:30.350Z,80.56
2022-09-26T18:04:01.312Z,80.52
2022-09-26T18:06:31.810Z,80.57
2022-09-26T18:09:05.285Z,80.55
2022-09-26T18:11:34.550Z,80.90
2022-09-26T18:14:04.706Z,80.69
2022-09-26T18:16:31.367Z,80.83
2022-09-26T18:18:58.908Z,80.74
2022-09-26T18:21:26.889Z,80.91
2022-09-26T18:24:02.281Z,80.88
2022-09-26T18:26:37.293Z,80.66
2022-09-26T18:29:07.768Z,81.02
2022-09-26T18:31:38.544Z,80.88
2022-09-26T18:34:12.163Z,80.82
2022-09-26T18:36:38.835Z,80.83
2022-09-26T18:39:05.447Z,81.02
2022-09-26T18:41:32.879Z,81.24
2022-09-26T18:44:02.347Z,81.25
2022-09-26T18:46:29.906Z,81.38
2022-09-26T18:48:58.917Z,81.33
2022-09-26T18:51:28.850Z,81.12
2022-09-26T18:53:55.476Z,81.54
2022-09-26T18:56:40.884Z,81.53
2022-09-26T18:59:10.156Z,81.20
2022-09-26T19:01:40.146Z,81.35
2022-09-26T19:04:17.732Z,81.36
2022-09-26T19:06:47.120Z,81.28
2022-09-26T19:09:20.260Z,81.58
2022-09-26T19:11:47.599Z,81.63
2022-09-26T19:14:18.684Z,81.81
2022-09-26T19:16:47.183Z,81.68
2022-09-26T19:19:14.794Z,81.71
2022-09-26T19:21:50.371Z,81.84
2022-09-26T19:24:34.431Z,82.00
2022-09-26T19:27:06.494Z,81.86
2022-09-26T19:29:59.856Z,81.82
2022-09-26T19:32:51.153Z,82.14
2022-09-26T19:35:25.831Z,82.17
2022-09-26T19:37:53.082Z,82.16
2022-09-26T19:40:21.643Z,82.31
2022-09-26T19:42:48.546Z,82.17
2022-09-26T19:45:16.295Z,82.34
2022-09-26T19:47:46.207Z,82.45
2022-09-26T19:50:20.811Z,82.49
2022-09-26T19:52:48.710Z,82.66
2022-09-26T19:55:21.762Z,82.61
2022-09-26T19:57:48.346Z,82.62
2022-09-26T20:00:15.672Z,82.74
2022-09-26T20:02:42.564Z,82.72
2022-09-26T20:05:24.132Z,82.74
2022-09-26T20:07:51.494Z,82.66
2022-09-26T20:10:21.234Z,82.88
2022-09-26T20:12:51.278Z,82.84
2022-09-26T20:15:21.653Z,82.89
2022-09-26T20:17:49.388Z,83.07
2022-09-26T20:20:25.399Z,83.08
2022-09-26T20:22:56.566Z,83.04
2022-09-26T20:25:27.440Z,83.09
2022-09-26T20:27:55.286Z,83.24
2022-09-26T20:30:41.286Z,83.27
2022-09-26T20:33:09.818Z,83.24
2022-09-26T20:35:41.726Z,83.29
2022-09-26T20:38:33.164Z,83.44
2022-09-26T20:41:16.071Z,83.35
2022-09-26T20:43:48.222Z,83.29
2022-09-26T20:46:15.304Z,83.31
2022-09-26T20:48:45.542Z,83.31
2022-09-26T20:51:27.435Z,83.48
2022-09-26T20:53:54.170Z,83.07
2022-09-26T20:56:21.407Z,83.80
2022-09-26T20:58:48.549Z,83.47
2022-09-26T21:01:17.179Z,83.60
2022-09-26T21:03:53.044Z,83.56
2022-09-26T21:06:22.186Z,83.64
2022-09-26T21:08:49.186Z,83.61
2022-09-26T21:11:18.753Z,83.45
2022-09-26T21:13:45.659Z,83.31
2022-09-26T21:16:14.213Z,83.49
2022-09-26T21:18:44.066Z,83.53
2022-09-26T21:21:30.433Z,83.59
2022-09-26T21:23:59.282Z,83.44
2022-09-26T21:26:28.338Z,83.43
2022-09-26T21:28:56.350Z,83.52
2022-09-26T21:31:29.429Z,83.25
2022-09-26T21:33:58.854Z,83.25
2022-09-26T21:36:33.960Z,83.35
2022-09-26T21:39:01.934Z,83.69
2022-09-26T21:41:29.415Z,83.14
2022-09-26T21:44:04.181Z,83.42
2022-09-26T21:46:30.946Z,83.26
2022-09-26T21:48:57.775Z,83.31
2022-09-26T21:51:27.865Z,83.39
2022-09-26T21:54:13.458Z,83.38
2022-09-26T21:56:50.125Z,83.37
2022-09-26T21:59:19.981Z,83.42
2022-09-26T22:01:46.716Z,83.32
2022-09-26T22:04:14.558Z,83.54
2022-09-26T22:06:42.099Z,83.59
2022-09-26T22:09:09.449Z,83.72
2022-09-26T22:11:36.970Z,83.70
2022-09-26T22:14:04.384Z,83.56
2022-09-26T22:16:31.254Z,83.62
2022-09-26T22:18:58.339Z,83.26
2022-09-26T22:21:24.989Z,83.59
2022-09-26T22:23:52.058Z,83.91
2022-09-26T22:26:19.762Z,83.72
2022-09-26T22:28:46.403Z,83.54
2022-09-26T22:31:13.190Z,83.70
2022-09-26T22:33:39.975Z,83.57
2022-09-26T22:36:06.850Z,84.10
2022-09-26T22:38:35.210Z,83.75
2022-09-26T22:41:04.736Z,83.72
2022-09-26T22:43:32.786Z,83.52
2022-09-26T22:46:05.442Z,83.52
2022-09-26T22:48:34.567Z,83.63
2022-09-26T22:51:01.574Z,83.62
2022-09-26T22:53:31.209Z,83.44
2022-09-26T22:55:58.337Z,83.90
2022-09-26T22:58:26.097Z,83.60
2022-09-26T23:00:52.817Z,83.73
2022-09-26T23:03:19.510Z,83.67
2022-09-26T23:05:51.266Z,83.75
2022-09-26T23:08:17.981Z,83.59
2022-09-26T23:10:49.127Z,84.02
2022-09-26T23:13:16.514Z,83.65
2022-09-26T23:15:43.640Z,83.63
2022-09-26T23:18:11.397Z,83.87
2022-09-26T23:20:42.395Z,83.80
2022-09-26T23:23:10.668Z,83.80
2022-09-26T23:25:44.521Z,83.93
2022-09-26T23:28:11.119Z,84.15
2022-09-26T23:30:38.478Z,84.00
2022-09-26T23:33:05.145Z,84.02
2022-09-26T23:35:31.747Z,83.92
2022-09-26T23:37:58.675Z,84.00
2022-09-26T23:40:25.774Z,84.28
2022-09-26T23:42:52.410Z,83.74
2022-09-26T23:45:19.018Z,84.19
2022-09-26T23:47:46.036Z,83.86
2022-09-26T23:50:12.666Z,83.89
2022-09-26T23:52:39.347Z,84.31
2022-09-26T23:55:06.352Z,84.02
2022-09-26T23:57:32.954Z,84.07
2022-09-26T23:59:59.566Z,84.01
